Register, Georgia
Current Conditions -  °F | °C
As of 2:35 AM on Wednesday 26 Nov 2014 (Local Time) from KTBR Reporting Station
Moderate Rain Moderate Rain  
Wind Chill: 43°   Ceiling: 600
Heat Index: 48°   Visibility: 4mi
Dew Point: 48°   Wind: 13mph
Humidity: 100%   Direction: 340°NNW
Pressure: 29.9"   Gusts: 18mph
Location:  32.37°N, 81.88°W
Report Text: KTBR 260735Z AUTO 34011G16KT 4SM RA OVC006 09/09 A2990 RMK AO2 T00910091
Loading
Personal Weather Stations






























Interactive Weather Map New forecast layout! Learn more

10-Day Weather Forecast

Advertisements
Track Severe Weather on mobile